createdAt,value
2018-07-15T00:00:07.438Z,58.00
2018-07-15T00:02:37.507Z,58.00
2018-07-15T00:05:06.257Z,58.20
2018-07-15T00:07:34.930Z,58.20
2018-07-15T00:10:03.996Z,58.10
2018-07-15T00:12:32.814Z,58.40
2018-07-15T00:15:02.247Z,58.90
2018-07-15T00:17:31.125Z,59.00
2018-07-15T00:19:59.759Z,59.00
2018-07-15T00:22:28.344Z,59.20
2018-07-15T00:24:57.078Z,59.40
2018-07-15T00:27:25.770Z,58.50
2018-07-15T00:29:54.763Z,58.70
2018-07-15T00:32:23.807Z,58.80
2018-07-15T00:34:52.710Z,58.80
2018-07-15T00:37:21.210Z,58.90
2018-07-15T00:39:49.830Z,58.80
2018-07-15T00:42:19.105Z,58.90
2018-07-15T00:44:47.702Z,58.90
2018-07-15T00:47:16.315Z,58.90
2018-07-15T00:49:45.028Z,58.80
2018-07-15T00:52:14.187Z,58.60
2018-07-15T00:57:11.341Z,59.00
2018-07-15T00:59:40.364Z,59.00
2018-07-15T01:02:08.972Z,58.90
2018-07-15T01:04:38.115Z,58.80
2018-07-15T01:07:06.874Z,58.70
2018-07-15T01:09:35.455Z,58.70
2018-07-15T01:12:04.104Z,58.70
2018-07-15T01:14:32.765Z,58.60
2018-07-15T01:17:01.363Z,58.70
2018-07-15T01:22:00.023Z,58.90
2018-07-15T01:24:28.597Z,58.90
2018-07-15T01:26:57.204Z,59.00
2018-07-15T01:29:26.188Z,58.90
2018-07-15T01:31:54.947Z,58.80
2018-07-15T01:34:24.418Z,59.10
2018-07-15T01:36:53.312Z,59.30
2018-07-15T01:39:22.113Z,59.40
2018-07-15T01:41:51.293Z,59.20
2018-07-15T01:44:19.864Z,59.10
2018-07-15T01:46:48.756Z,59.10
2018-07-15T01:49:17.697Z,59.30
2018-07-15T01:51:46.319Z,59.40
2018-07-15T01:54:15.260Z,59.60
2018-07-15T01:56:44.034Z,59.50
2018-07-15T01:59:12.772Z,59.80
2018-07-15T02:01:41.335Z,60.70
2018-07-15T02:04:09.856Z,60.30
2018-07-15T02:06:38.716Z,60.20
2018-07-15T02:09:07.296Z,60.10
2018-07-15T02:11:35.937Z,59.50
2018-07-15T02:14:04.945Z,59.30
2018-07-15T02:16:33.772Z,59.50
2018-07-15T02:19:03.077Z,59.60
2018-07-15T02:21:32.228Z,59.80
2018-07-15T02:24:00.765Z,59.90
2018-07-15T02:26:30.165Z,60.10
2018-07-15T02:28:59.365Z,60.30
2018-07-15T02:31:28.459Z,60.80
2018-07-15T02:33:56.956Z,60.80
2018-07-15T02:36:26.060Z,60.60
2018-07-15T02:38:54.656Z,60.50
2018-07-15T02:41:23.315Z,60.00
2018-07-15T02:43:52.115Z,59.70
2018-07-15T02:46:20.843Z,59.80
2018-07-15T02:51:17.627Z,60.20
2018-07-15T02:53:46.522Z,60.00
2018-07-15T02:56:15.133Z,59.80
2018-07-15T02:58:44.471Z,59.40
2018-07-15T03:01:13.311Z,59.30
2018-07-15T03:03:41.996Z,59.30
2018-07-15T03:06:10.599Z,59.30
2018-07-15T03:08:39.085Z,59.50
2018-07-15T03:11:07.648Z,59.60
2018-07-15T03:13:36.603Z,59.60
2018-07-15T03:16:05.200Z,59.80
2018-07-15T03:18:33.759Z,59.80
2018-07-15T03:23:31.060Z,59.80
2018-07-15T03:25:59.916Z,59.80
2018-07-15T03:28:28.470Z,59.80
2018-07-15T03:30:56.987Z,59.90
2018-07-15T03:33:26.000Z,59.90
2018-07-15T03:35:54.580Z,60.10
2018-07-15T03:40:51.432Z,60.40
2018-07-15T03:43:20.409Z,60.50
2018-07-15T03:45:48.956Z,60.60
2018-07-15T03:48:17.861Z,60.50
2018-07-15T03:50:47.061Z,60.70
2018-07-15T03:53:16.132Z,60.70
2018-07-15T03:55:45.239Z,60.70
2018-07-15T03:58:13.733Z,60.70
2018-07-15T04:00:42.638Z,60.90
2018-07-15T04:03:11.197Z,61.00
2018-07-15T04:05:39.744Z,61.10
2018-07-15T04:08:08.761Z,61.00
2018-07-15T04:10:37.916Z,61.40
2018-07-15T04:13:06.759Z,61.50
2018-07-15T04:15:36.164Z,61.70
2018-07-15T04:18:06.789Z,61.50
2018-07-15T04:20:36.548Z,61.50
2018-07-15T04:23:05.979Z,61.80
2018-07-15T04:25:35.197Z,62.00
2018-07-15T04:28:04.532Z,62.20
2018-07-15T04:30:33.324Z,61.90
2018-07-15T04:33:01.925Z,61.80
2018-07-15T04:35:30.462Z,61.80
2018-07-15T04:37:59.127Z,61.60
2018-07-15T04:40:27.688Z,61.60
2018-07-15T04:42:56.279Z,61.80
2018-07-15T04:45:24.805Z,61.80
2018-07-15T04:47:53.682Z,61.40
2018-07-15T04:50:22.300Z,61.10
2018-07-15T04:52:51.125Z,60.90
2018-07-15T04:55:19.643Z,60.70
2018-07-15T04:57:48.601Z,61.00
2018-07-15T05:00:17.189Z,61.00
2018-07-15T05:02:45.998Z,61.10
2018-07-15T05:05:14.559Z,61.00
2018-07-15T05:07:44.032Z,61.10
2018-07-15T05:10:12.551Z,60.90
2018-07-15T05:12:41.800Z,61.00
2018-07-15T05:15:10.844Z,61.10
2018-07-15T05:17:40.037Z,60.90
2018-07-15T05:20:08.554Z,60.70
2018-07-15T05:22:37.085Z,60.90
2018-07-15T05:25:06.076Z,60.80
2018-07-15T05:27:34.668Z,60.90
2018-07-15T05:30:03.300Z,60.90
2018-07-15T05:32:32.013Z,60.90
2018-07-15T05:35:01.166Z,60.60
2018-07-15T05:37:29.604Z,60.30
2018-07-15T05:39:58.444Z,60.00
2018-07-15T05:42:27.065Z,59.80
2018-07-15T05:44:55.916Z,59.70
2018-07-15T05:47:24.457Z,59.60
2018-07-15T05:52:21.300Z,59.20
2018-07-15T05:54:50.079Z,58.90
2018-07-15T05:57:18.955Z,58.80
2018-07-15T05:59:47.826Z,58.70
2018-07-15T06:02:16.587Z,59.00
2018-07-15T06:04:45.149Z,59.40
2018-07-15T06:07:13.702Z,59.00
2018-07-15T06:09:43.058Z,58.70
2018-07-15T06:12:11.966Z,58.50
2018-07-15T06:14:40.772Z,58.40
2018-07-15T06:17:09.622Z,58.10
2018-07-15T06:19:38.212Z,58.10
2018-07-15T06:22:07.059Z,58.40
2018-07-15T06:24:35.983Z,58.50
2018-07-15T06:29:32.732Z,58.60
2018-07-15T06:32:02.136Z,58.50
2018-07-15T06:34:31.199Z,58.40
2018-07-15T06:36:59.890Z,58.10
2018-07-15T06:39:28.784Z,57.90
2018-07-15T06:41:57.350Z,57.70
2018-07-15T06:44:26.338Z,57.60
2018-07-15T06:46:55.618Z,57.60
2018-07-15T06:49:24.294Z,57.50
2018-07-15T06:51:53.420Z,57.20
2018-07-15T06:54:22.320Z,57.00
2018-07-15T06:56:51.238Z,56.50
2018-07-15T06:59:20.100Z,56.30
2018-07-15T07:01:49.197Z,56.00
2018-07-15T07:04:18.094Z,55.70
2018-07-15T07:06:46.997Z,55.40
2018-07-15T07:09:15.572Z,54.90
2018-07-15T07:11:44.447Z,54.60
2018-07-15T07:14:13.319Z,54.30
2018-07-15T07:16:41.951Z,54.00
2018-07-15T07:19:10.793Z,53.90
2018-07-15T07:24:07.644Z,53.40
2018-07-15T07:26:37.048Z,53.40
2018-07-15T07:29:05.862Z,53.10
2018-07-15T07:31:34.969Z,53.00
2018-07-15T07:34:03.507Z,53.30
2018-07-15T07:39:00.830Z,52.10
2018-07-15T07:41:29.405Z,52.30
2018-07-15T07:43:57.963Z,52.00
2018-07-15T07:46:27.147Z,51.60
2018-07-15T07:48:55.874Z,51.70
2018-07-15T07:51:24.871Z,51.40
2018-07-15T07:53:54.353Z,51.30
2018-07-15T07:56:22.894Z,51.00
2018-07-15T08:01:20.583Z,50.80
2018-07-15T08:03:49.423Z,50.80
2018-07-15T08:06:17.948Z,50.90
2018-07-15T08:11:14.934Z,50.70
2018-07-15T08:13:44.068Z,50.20
2018-07-15T08:16:12.736Z,50.10
2018-07-15T08:18:41.293Z,49.90
2018-07-15T08:21:10.138Z,49.80
2018-07-15T08:23:39.122Z,49.80
2018-07-15T08:26:08.384Z,49.30
2018-07-15T08:28:37.425Z,49.30
2018-07-15T08:31:10.772Z,49.40
2018-07-15T08:33:39.563Z,49.30
2018-07-15T08:36:08.704Z,48.90
2018-07-15T08:38:38.322Z,49.30
2018-07-15T08:41:07.633Z,48.80
2018-07-15T08:43:37.235Z,48.90
2018-07-15T08:46:06.928Z,49.10
2018-07-15T08:48:35.816Z,49.40
2018-07-15T08:51:05.302Z,49.80
2018-07-15T08:53:34.403Z,50.10
2018-07-15T08:56:03.704Z,50.10
2018-07-15T08:58:33.475Z,50.20
2018-07-15T09:01:02.046Z,50.40
2018-07-15T09:03:31.565Z,50.70
2018-07-15T09:06:01.523Z,50.80
2018-07-15T09:08:32.532Z,50.80
2018-07-15T09:11:01.578Z,50.60
2018-07-15T09:13:30.181Z,50.60
2018-07-15T09:15:59.474Z,50.30
2018-07-15T09:18:28.281Z,50.00
2018-07-15T09:20:57.023Z,49.50
2018-07-15T09:23:25.871Z,50.00
2018-07-15T09:25:54.507Z,50.10
2018-07-15T09:28:23.168Z,48.90
2018-07-15T09:30:51.680Z,49.40
2018-07-15T09:33:20.207Z,49.70
2018-07-15T09:35:49.755Z,49.80
2018-07-15T09:38:18.437Z,49.90
2018-07-15T09:40:48.066Z,49.90
2018-07-15T09:43:17.533Z,50.00
2018-07-15T09:45:46.339Z,50.40
2018-07-15T09:48:15.242Z,50.40
2018-07-15T09:50:43.969Z,50.60
2018-07-15T09:53:12.711Z,50.70
2018-07-15T09:55:41.357Z,50.90
2018-07-15T09:58:10.098Z,51.20
2018-07-15T10:00:43.900Z,51.10
2018-07-15T10:03:12.609Z,50.20
2018-07-15T10:05:41.417Z,50.60
2018-07-15T10:08:10.589Z,50.50
2018-07-15T10:10:39.509Z,50.10
2018-07-15T10:13:08.137Z,50.00
2018-07-15T10:15:37.536Z,47.30
2018-07-15T10:18:06.381Z,48.80
2018-07-15T10:20:34.976Z,48.00
2018-07-15T10:23:05.605Z,48.40
2018-07-15T10:25:34.256Z,48.10
2018-07-15T10:28:02.812Z,48.00
2018-07-15T10:30:31.340Z,48.20
2018-07-15T10:33:00.214Z,48.50
2018-07-15T10:35:29.188Z,48.40
2018-07-15T10:37:58.428Z,46.90
2018-07-15T10:40:27.137Z,47.70
2018-07-15T10:42:55.673Z,46.50
2018-07-15T10:45:24.651Z,47.40
2018-07-15T10:47:53.244Z,47.50
2018-07-15T10:50:21.861Z,47.70
2018-07-15T10:52:50.534Z,46.70
2018-07-15T10:55:19.558Z,45.90
2018-07-15T10:57:50.228Z,46.40
2018-07-15T11:00:19.086Z,46.40
2018-07-15T11:02:47.623Z,46.50
2018-07-15T11:05:16.650Z,46.20
2018-07-15T11:07:45.748Z,45.90
2018-07-15T11:10:14.796Z,45.80
2018-07-15T11:12:44.145Z,46.30
2018-07-15T11:15:13.313Z,45.80
2018-07-15T11:17:42.541Z,45.70
2018-07-15T11:20:11.798Z,45.30
2018-07-15T11:22:40.604Z,44.60
2018-07-15T11:25:09.609Z,44.40
2018-07-15T11:27:38.424Z,43.70
2018-07-15T11:30:07.540Z,44.20
2018-07-15T11:32:36.731Z,44.90
2018-07-15T11:35:05.857Z,43.60
2018-07-15T11:37:34.904Z,43.80
2018-07-15T11:40:04.300Z,44.10
2018-07-15T11:45:01.599Z,44.80
2018-07-15T11:47:30.569Z,43.90
2018-07-15T11:49:59.127Z,43.50
2018-07-15T11:52:27.762Z,43.70
2018-07-15T11:54:56.397Z,44.00
2018-07-15T11:57:25.647Z,44.40
2018-07-15T11:59:54.504Z,43.90
2018-07-15T12:02:23.102Z,44.40
2018-07-15T12:04:51.732Z,43.70
2018-07-15T12:07:20.826Z,43.50
2018-07-15T12:09:49.768Z,43.40
2018-07-15T12:12:18.484Z,42.80
2018-07-15T12:14:47.311Z,43.80
2018-07-15T12:17:16.399Z,43.60
2018-07-15T12:19:45.186Z,43.10
2018-07-15T12:22:15.167Z,42.60
2018-07-15T12:24:44.502Z,42.10
2018-07-15T12:27:13.569Z,42.30
2018-07-15T12:29:42.671Z,42.70
2018-07-15T12:32:11.431Z,42.70
2018-07-15T12:34:40.461Z,42.90
2018-07-15T12:37:09.324Z,42.60
2018-07-15T12:39:37.837Z,42.20
2018-07-15T12:42:07.240Z,42.40
2018-07-15T12:44:36.196Z,42.30
2018-07-15T12:47:05.236Z,43.10
2018-07-15T12:49:33.957Z,42.50
2018-07-15T12:52:03.100Z,42.50
2018-07-15T12:54:31.678Z,45.10
2018-07-15T12:57:00.429Z,49.10
2018-07-15T12:59:29.183Z,51.50
2018-07-15T13:01:58.046Z,52.70
2018-07-15T13:04:26.796Z,54.70
2018-07-15T13:06:55.712Z,55.90
2018-07-15T13:09:24.484Z,57.80
2018-07-15T13:11:53.170Z,57.90
2018-07-15T13:14:21.905Z,59.80
2018-07-15T13:16:51.151Z,59.30
2018-07-15T13:19:19.869Z,60.50
2018-07-15T13:21:48.604Z,60.80
2018-07-15T13:24:17.222Z,62.30
2018-07-15T13:26:46.098Z,63.20
2018-07-15T13:29:14.684Z,64.70
2018-07-15T13:31:43.684Z,66.50
2018-07-15T13:34:12.512Z,71.40
2018-07-15T13:36:41.487Z,70.70
2018-07-15T13:39:10.781Z,70.60
2018-07-15T13:41:39.742Z,70.60
2018-07-15T13:44:08.831Z,71.90
2018-07-15T13:46:37.388Z,72.80
2018-07-15T13:49:06.504Z,73.60
2018-07-15T13:51:35.688Z,73.80
2018-07-15T13:54:04.505Z,74.50
2018-07-15T13:56:33.263Z,73.40
2018-07-15T13:59:02.203Z,71.90
2018-07-15T14:01:30.840Z,72.30
2018-07-15T14:03:59.776Z,71.80
2018-07-15T14:06:31.274Z,71.70
2018-07-15T14:09:00.693Z,72.50
2018-07-15T14:11:29.395Z,73.10
2018-07-15T14:13:58.592Z,72.80
2018-07-15T14:16:27.480Z,71.50
2018-07-15T14:18:57.106Z,72.30
2018-07-15T14:21:26.123Z,72.30
2018-07-15T14:23:54.836Z,71.30
2018-07-15T14:26:23.396Z,71.60
2018-07-15T14:28:52.508Z,70.80
2018-07-15T14:31:21.206Z,70.50
2018-07-15T14:33:50.813Z,71.10
2018-07-15T14:36:19.593Z,70.10
2018-07-15T14:38:48.330Z,69.60
2018-07-15T14:41:17.095Z,69.40
2018-07-15T14:43:46.416Z,69.00
2018-07-15T14:48:43.531Z,69.00
2018-07-15T14:51:12.235Z,68.30
2018-07-15T14:53:41.063Z,67.00
2018-07-15T14:56:11.300Z,67.60
2018-07-15T14:58:40.631Z,66.40
2018-07-15T15:01:10.219Z,66.60
2018-07-15T15:03:39.568Z,67.30
2018-07-15T15:06:08.441Z,67.60
2018-07-15T15:08:37.215Z,67.10
2018-07-15T15:11:06.554Z,66.50
2018-07-15T15:13:35.839Z,67.10
2018-07-15T15:16:04.525Z,67.00
2018-07-15T15:18:33.550Z,66.30
2018-07-15T15:21:02.165Z,65.70
2018-07-15T15:23:31.097Z,65.80
2018-07-15T15:25:59.721Z,66.40
2018-07-15T15:28:28.391Z,66.40
2018-07-15T15:30:57.592Z,67.10
2018-07-15T15:33:26.301Z,66.40
2018-07-15T15:35:54.878Z,66.30
2018-07-15T15:38:23.836Z,62.90
2018-07-15T15:40:52.526Z,63.40
2018-07-15T15:43:21.168Z,63.80
2018-07-15T15:45:50.080Z,63.90
2018-07-15T15:48:19.036Z,62.80
2018-07-15T15:50:47.630Z,63.60
2018-07-15T15:53:16.297Z,64.20
2018-07-15T15:55:44.968Z,65.10
2018-07-15T15:58:13.663Z,64.10
2018-07-15T16:00:43.649Z,65.00
2018-07-15T16:03:12.185Z,65.70
2018-07-15T16:05:40.780Z,66.50
2018-07-15T16:08:09.388Z,67.10
2018-07-15T16:10:38.052Z,67.50
2018-07-15T16:13:06.674Z,67.20
2018-07-15T16:15:35.660Z,67.10
2018-07-15T16:18:04.517Z,67.20
2018-07-15T16:20:33.096Z,67.10
2018-07-15T16:23:01.680Z,66.90
2018-07-15T16:25:30.382Z,66.10
2018-07-15T16:27:59.197Z,66.10
2018-07-15T16:30:27.977Z,66.50
2018-07-15T16:32:56.927Z,66.40
2018-07-15T16:35:25.707Z,66.60
2018-07-15T16:37:54.887Z,66.80
2018-07-15T16:40:24.212Z,66.60
2018-07-15T16:42:53.183Z,67.70
2018-07-15T16:45:21.891Z,67.50
2018-07-15T16:47:50.676Z,67.60
2018-07-15T16:50:19.321Z,67.80
2018-07-15T16:52:47.896Z,67.90
2018-07-15T16:55:17.530Z,67.40
2018-07-15T16:57:46.464Z,67.50
2018-07-15T17:00:15.186Z,67.30
2018-07-15T17:02:44.052Z,67.00
2018-07-15T17:05:12.604Z,67.40
2018-07-15T17:10:13.036Z,67.70
2018-07-15T17:15:10.087Z,67.00
2018-07-15T17:17:39.369Z,67.20
2018-07-15T17:20:08.028Z,67.20
2018-07-15T17:22:37.537Z,67.60
2018-07-15T17:25:06.671Z,67.50
2018-07-15T17:27:35.561Z,67.60
2018-07-15T17:30:04.737Z,67.60
2018-07-15T17:32:34.072Z,67.90
2018-07-15T17:35:02.611Z,68.20
2018-07-15T17:37:31.705Z,69.10
2018-07-15T17:40:00.696Z,69.20
2018-07-15T17:42:29.625Z,68.00
2018-07-15T17:44:58.790Z,67.90
2018-07-15T17:47:28.275Z,68.30
2018-07-15T17:49:57.596Z,68.00
2018-07-15T17:52:26.432Z,67.40
2018-07-15T17:54:55.013Z,67.60
2018-07-15T17:57:23.980Z,67.80
2018-07-15T17:59:52.545Z,67.80
2018-07-15T18:02:21.310Z,67.70
2018-07-15T18:04:50.093Z,67.30
2018-07-15T18:07:18.931Z,67.70
2018-07-15T18:09:47.594Z,67.80
2018-07-15T18:12:16.193Z,67.70
2018-07-15T18:14:45.032Z,67.50
2018-07-15T18:19:41.968Z,67.40
2018-07-15T18:22:10.867Z,67.20
2018-07-15T18:24:39.595Z,67.40
2018-07-15T18:27:08.498Z,67.60
2018-07-15T18:29:37.291Z,67.40
2018-07-15T18:32:06.621Z,67.80
2018-07-15T18:34:35.963Z,68.40
2018-07-15T18:37:05.065Z,68.30
2018-07-15T18:39:33.739Z,68.40
2018-07-15T18:42:02.617Z,68.30
2018-07-15T18:44:31.817Z,68.20
2018-07-15T18:47:01.266Z,68.50
2018-07-15T18:49:30.009Z,68.50
2018-07-15T18:54:27.345Z,68.30
2018-07-15T18:56:56.540Z,68.20
2018-07-15T18:59:26.547Z,68.30
2018-07-15T19:01:55.334Z,68.60
2018-07-15T19:04:23.999Z,68.40
2018-07-15T19:06:52.864Z,68.60
2018-07-15T19:09:21.481Z,69.00
2018-07-15T19:11:50.217Z,69.60
2018-07-15T19:14:18.867Z,69.00
2018-07-15T19:16:48.985Z,68.60
2018-07-15T19:19:20.209Z,68.10
2018-07-15T19:21:49.224Z,67.80
2018-07-15T19:24:18.574Z,67.10
2018-07-15T19:26:47.339Z,67.00
2018-07-15T19:29:17.513Z,67.10
2018-07-15T19:31:46.201Z,67.10
2018-07-15T19:34:14.771Z,66.80
2018-07-15T19:36:43.801Z,67.00
2018-07-15T19:39:13.640Z,67.50
2018-07-15T19:41:43.510Z,67.70
2018-07-15T19:44:12.323Z,68.50
2018-07-15T19:46:41.550Z,69.20
2018-07-15T19:49:10.116Z,69.40
2018-07-15T19:51:38.655Z,69.30
2018-07-15T19:54:07.591Z,69.50
2018-07-15T19:56:36.793Z,69.80
2018-07-15T19:59:05.943Z,69.70
2018-07-15T20:01:34.648Z,69.60
2018-07-15T20:04:03.271Z,69.00
2018-07-15T20:06:31.909Z,68.80
2018-07-15T20:09:00.619Z,69.30
2018-07-15T20:11:29.249Z,68.90
2018-07-15T20:13:58.816Z,68.50
2018-07-15T20:16:27.619Z,67.80
2018-07-15T20:18:56.656Z,67.30
2018-07-15T20:21:25.538Z,67.40
2018-07-15T20:26:23.389Z,67.80
2018-07-15T20:28:52.924Z,67.70
2018-07-15T20:31:21.729Z,67.70
2018-07-15T20:33:51.117Z,67.30
2018-07-15T20:36:19.857Z,66.80
2018-07-15T20:38:50.551Z,66.80
2018-07-15T20:41:19.280Z,67.00
2018-07-15T20:43:48.068Z,67.10
2018-07-15T20:46:17.098Z,67.00
2018-07-15T20:48:46.207Z,67.10
2018-07-15T20:51:14.825Z,67.10
2018-07-15T20:53:43.406Z,67.00
2018-07-15T20:56:12.067Z,67.00
2018-07-15T20:58:41.340Z,67.20
2018-07-15T21:01:10.095Z,67.00
2018-07-15T21:03:38.780Z,67.20
2018-07-15T21:06:07.548Z,67.30
2018-07-15T21:08:36.171Z,66.80
2018-07-15T21:11:04.742Z,67.00
2018-07-15T21:13:33.360Z,67.20
2018-07-15T21:16:01.906Z,67.30
2018-07-15T21:18:30.751Z,67.20
2018-07-15T21:20:59.544Z,67.30
2018-07-15T21:25:57.075Z,67.40
2018-07-15T21:28:25.678Z,67.50
2018-07-15T21:30:54.277Z,67.40
2018-07-15T21:35:51.458Z,67.10
2018-07-15T21:38:20.069Z,66.70
2018-07-15T21:40:49.699Z,66.30
2018-07-15T21:43:18.622Z,66.50
2018-07-15T21:45:47.546Z,66.60
2018-07-15T21:48:16.079Z,67.20
2018-07-15T21:50:44.855Z,67.30
2018-07-15T21:53:13.413Z,67.90
2018-07-15T21:55:42.090Z,67.90
2018-07-15T21:58:10.709Z,68.00
2018-07-15T22:00:39.291Z,68.10
2018-07-15T22:03:08.555Z,68.20
2018-07-15T22:05:37.448Z,68.00
2018-07-15T22:08:17.067Z,68.10
2018-07-15T22:10:47.061Z,68.20
2018-07-15T22:13:15.746Z,68.70
2018-07-15T22:15:44.725Z,68.00
2018-07-15T22:18:13.682Z,68.10
2018-07-15T22:20:42.454Z,68.30
2018-07-15T22:23:11.094Z,68.20
2018-07-15T22:25:40.380Z,68.40
2018-07-15T22:28:09.543Z,68.40
2018-07-15T22:30:38.484Z,68.20
2018-07-15T22:33:07.096Z,67.90
2018-07-15T22:35:35.767Z,67.70
2018-07-15T22:38:04.903Z,67.70
2018-07-15T22:40:33.579Z,67.70
2018-07-15T22:43:02.402Z,68.00
2018-07-15T22:45:30.995Z,68.50
2018-07-15T22:47:59.788Z,68.50
2018-07-15T22:50:28.876Z,68.50
2018-07-15T22:52:57.532Z,68.40
2018-07-15T22:55:26.108Z,68.40
2018-07-15T22:57:55.143Z,68.10
2018-07-15T23:00:23.795Z,67.80
2018-07-15T23:02:52.390Z,67.80
2018-07-15T23:05:34.896Z,68.10
2018-07-15T23:08:04.642Z,68.10
2018-07-15T23:10:33.226Z,68.20
2018-07-15T23:13:02.305Z,68.30
2018-07-15T23:15:31.343Z,68.20
2018-07-15T23:18:00.406Z,67.80
2018-07-15T23:20:30.532Z,67.60
2018-07-15T23:23:00.222Z,67.50
2018-07-15T23:25:29.352Z,67.50
2018-07-15T23:27:59.069Z,67.00
2018-07-15T23:30:28.058Z,68.00
2018-07-15T23:32:56.631Z,68.10
2018-07-15T23:35:25.290Z,68.10
2018-07-15T23:37:54.250Z,68.40
2018-07-15T23:40:22.922Z,68.40
2018-07-15T23:42:52.639Z,68.20
2018-07-15T23:45:22.163Z,68.10
2018-07-15T23:47:50.683Z,67.90
2018-07-15T23:50:19.321Z,68.70
2018-07-15T23:52:47.955Z,67.80
2018-07-15T23:55:16.629Z,67.70
